Terminal Aerodrome Forecast
Issued by NWS

Home | Current Version | Previous Version | Text Only | Print | Product List | Glossary On
Versions: 1 2 3 4 5 6 7 8 9 10 11 12 13 14 15 16 17 18 19 20 21 22 23
000
FTUS41 KBGM 222300
TAFELM
TAF
KELM 222325Z 2300/2324 VRB03KT P6SM SCT025
      TEMPO 2300/2304 BKN025
     FM230400 VRB03KT 4SM BR BKN012
     FM230600 VRB03KT 1/2SM FG VV002
     FM231300 10004KT 4SM BR BKN015
     FM231600 13005KT P6SM BKN045=

USA.gov is the U.S. government's official web portal to all federal, state and local government web resources and services.